LYNI/INI METAR and TAF weather

Enter ICAO airport designator
Station Type Date Time Source
LYNI METAR 2022/11/30 11:00 UTC NOAA

LYNI 301100Z 04012KT 010V070 9999 FEW022 SCT045 08/02 Q1018 NOSIG


Station Type Date Time Source
LYNI Decoded METAR 2022/11/30 11:00 UTC NOAA

Nis, Serbia and Montenegro (LYNI) 43-20N 021-54E 202M
Nov 30, 2022 - 06:00 AM EST / 2022.11.30 1100 UTC
Wind: from the NE (040 degrees) at 14 MPH (12 KT) (direction variable):0
Visibility: greater than 7 mile(s):0
Sky conditions: partly cloudy
Temperature: 46 F (8 C)
Dew Point: 35 F (2 C)
Relative Humidity: 65%
Pressure (altimeter): 30.06 in. Hg (1018 hPa)
ob: LYNI 301100Z 04012KT 010V070 9999 FEW022 SCT045 08/02 Q1018 NOSIG
cycle: 11

Station Type Date Time Source
LYNI TAF 2022/11/30 12:21 UTC NOAA

TAF LYNI 301100Z 3012/0112 05009KT 9999 BKN045 TX07/3012Z TN04/0106Z

Example: see airport list